Grissom ARB, Indiana
Current Conditions -  °F | °C
As of 6:58 PM on Friday 31 Oct 2014 (Local Time) from KGUS Reporting Station
Light Snow Light Snow  
Wind Chill: 24°   Ceiling: 1100
Heat Index: 35°   Visibility: 10mi
Dew Point: 35°   Wind: 21mph
Humidity: 100%   Direction: 350°N
Pressure: 30.08"   Gusts: 30mph
Location:  40.6587°N, 86.1483°W
Report Text: KGUS 312258Z 35018G26KT 10SM -RASN SCT007 OVC011 02/02 A3008 RMK AO2A PK WND 35034/11 SLP195 P0000 T00170017
Loading
Personal Weather Stations






























Interactive Weather Map
Tropical Storm Tracking
New forecast layout! Learn more

10-Day Weather Forecast

Advertisements
Track Severe Weather on mobile